sensor_id;sensor_type;location;lat;lon;timestamp;temperature;humidity
2757;DHT22;1386;50.862;6.494;2023-08-07T14:41:01;19.70;99.90
2757;DHT22;1386;50.862;6.494;2023-08-07T14:43:29;19.80;99.90
2757;DHT22;1386;50.862;6.494;2023-08-07T14:45:56;19.80;99.90
2757;DHT22;1386;50.862;6.494;2023-08-07T14:48:23;19.90;99.90
2757;DHT22;1386;50.862;6.494;2023-08-07T14:50:50;20.10;99.90
2757;DHT22;1386;50.862;6.494;2023-08-07T15:06:25;20.50;99.90
2757;DHT22;1386;50.862;6.494;2023-08-07T15:08:53;20.50;99.90
2757;DHT22;1386;50.862;6.494;2023-08-07T15:11:21;20.40;99.90
2757;DHT22;1386;50.862;6.494;2023-08-07T15:14:01;20.40;99.90
2757;DHT22;1386;50.862;6.494;2023-08-07T15:16:31;20.40;99.90
2757;DHT22;1386;50.862;6.494;2023-08-07T15:19:18;20.30;99.90
2757;DHT22;1386;50.862;6.494;2023-08-07T15:21:58;20.00;99.90
2757;DHT22;1386;50.862;6.494;2023-08-07T15:25:18;19.80;99.90
2757;DHT22;1386;50.862;6.494;2023-08-07T15:28:05;19.60;99.90
2757;DHT22;1386;50.862;6.494;2023-08-07T15:30:38;19.50;99.90
2757;DHT22;1386;50.862;6.494;2023-08-07T15:33:23;19.50;99.90
2757;DHT22;1386;50.862;6.494;2023-08-07T15:36:05;19.60;99.90
2757;DHT22;1386;50.862;6.494;2023-08-07T15:38:34;19.60;99.90
2757;DHT22;1386;50.862;6.494;2023-08-07T15:41:06;19.60;99.90
2757;DHT22;1386;50.862;6.494;2023-08-07T15:43:33;19.60;99.90
2757;DHT22;1386;50.862;6.494;2023-08-07T15:46:03;19.50;99.90
2757;DHT22;1386;50.862;6.494;2023-08-07T15:48:32;19.50;99.90
2757;DHT22;1386;50.862;6.494;2023-08-07T15:51:03;19.40;99.90
2757;DHT22;1386;50.862;6.494;2023-08-07T15:53:30;19.40;99.90
2757;DHT22;1386;50.862;6.494;2023-08-07T15:55:57;19.40;99.90
2757;DHT22;1386;50.862;6.494;2023-08-07T15:58:27;19.40;99.90
2757;DHT22;1386;50.862;6.494;2023-08-07T16:01:02;19.30;99.90
2757;DHT22;1386;50.862;6.494;2023-08-07T16:03:28;19.20;99.90
2757;DHT22;1386;50.862;6.494;2023-08-07T16:05:57;19.20;99.90
2757;DHT22;1386;50.862;6.494;2023-08-07T16:08:34;19.20;99.90
2757;DHT22;1386;50.862;6.494;2023-08-07T16:11:01;19.10;99.90
2757;DHT22;1386;50.862;6.494;2023-08-07T16:13:30;19.20;99.90
2757;DHT22;1386;50.862;6.494;2023-08-07T16:15:57;19.20;99.90
2757;DHT22;1386;50.862;6.494;2023-08-07T16:18:24;19.20;99.90
2757;DHT22;1386;50.862;6.494;2023-08-07T16:20:52;19.20;99.90
2757;DHT22;1386;50.862;6.494;2023-08-07T16:23:42;19.10;99.90
2757;DHT22;1386;50.862;6.494;2023-08-07T16:26:10;19.10;99.90
2757;DHT22;1386;50.862;6.494;2023-08-07T16:28:37;19.10;99.90
2757;DHT22;1386;50.862;6.494;2023-08-07T16:31:04;19.10;99.90
2757;DHT22;1386;50.862;6.494;2023-08-07T16:33:31;19.10;99.90
2757;DHT22;1386;50.862;6.494;2023-08-07T16:35:58;19.10;99.90
2757;DHT22;1386;50.862;6.494;2023-08-07T16:38:26;19.10;99.90
2757;DHT22;1386;50.862;6.494;2023-08-07T16:40:54;19.10;99.90
2757;DHT22;1386;50.862;6.494;2023-08-07T16:43:21;19.10;99.90
2757;DHT22;1386;50.862;6.494;2023-08-07T16:45:48;19.10;99.90
2757;DHT22;1386;50.862;6.494;2023-08-07T16:48:15;19.00;99.90
2757;DHT22;1386;50.862;6.494;2023-08-07T16:50:46;19.00;99.90
2757;DHT22;1386;50.862;6.494;2023-08-07T16:53:13;19.00;99.90
2757;DHT22;1386;50.862;6.494;2023-08-07T16:55:40;18.90;99.90
2757;DHT22;1386;50.862;6.494;2023-08-07T16:58:08;18.90;99.90
2757;DHT22;1386;50.862;6.494;2023-08-07T17:00:38;18.90;99.90
2757;DHT22;1386;50.862;6.494;2023-08-07T17:03:05;18.90;99.90
2757;DHT22;1386;50.862;6.494;2023-08-07T17:05:31;18.90;99.90
2757;DHT22;1386;50.862;6.494;2023-08-07T17:07:59;18.90;99.90
2757;DHT22;1386;50.862;6.494;2023-08-07T17:10:26;18.80;99.90
2757;DHT22;1386;50.862;6.494;2023-08-07T17:12:52;18.80;99.90
2757;DHT22;1386;50.862;6.494;2023-08-07T17:15:23;18.80;99.90
2757;DHT22;1386;50.862;6.494;2023-08-07T17:17:50;18.70;99.90
2757;DHT22;1386;50.862;6.494;2023-08-07T17:20:20;18.60;99.90
2757;DHT22;1386;50.862;6.494;2023-08-07T17:22:47;18.60;99.90
2757;DHT22;1386;50.862;6.494;2023-08-07T17:25:14;18.50;99.90
2757;DHT22;1386;50.862;6.494;2023-08-07T17:27:41;18.50;99.90
2757;DHT22;1386;50.862;6.494;2023-08-07T17:30:08;18.40;99.90
2757;DHT22;1386;50.862;6.494;2023-08-07T17:32:36;18.40;99.90
2757;DHT22;1386;50.862;6.494;2023-08-07T17:35:05;18.40;99.90
2757;DHT22;1386;50.862;6.494;2023-08-07T17:37:33;18.30;99.90
2757;DHT22;1386;50.862;6.494;2023-08-07T17:40:00;18.30;99.90
2757;DHT22;1386;50.862;6.494;2023-08-07T17:42:26;18.30;99.90
2757;DHT22;1386;50.862;6.494;2023-08-07T17:44:53;18.20;99.90
2757;DHT22;1386;50.862;6.494;2023-08-07T17:47:21;18.20;99.90
2757;DHT22;1386;50.862;6.494;2023-08-07T17:49:50;18.20;99.90
2757;DHT22;1386;50.862;6.494;2023-08-07T17:52:17;18.20;99.90
2757;DHT22;1386;50.862;6.494;2023-08-07T17:54:43;18.10;99.90
2757;DHT22;1386;50.862;6.494;2023-08-07T17:57:12;18.10;99.90
2757;DHT22;1386;50.862;6.494;2023-08-07T17:59:39;18.10;99.90
2757;DHT22;1386;50.862;6.494;2023-08-07T18:02:06;18.20;99.90
2757;DHT22;1386;50.862;6.494;2023-08-07T18:04:33;18.20;99.90
2757;DHT22;1386;50.862;6.494;2023-08-07T18:07:01;18.20;99.90
2757;DHT22;1386;50.862;6.494;2023-08-07T18:09:28;18.10;99.90
2757;DHT22;1386;50.862;6.494;2023-08-07T18:11:55;18.10;99.90
2757;DHT22;1386;50.862;6.494;2023-08-07T18:14:22;18.10;99.90
2757;DHT22;1386;50.862;6.494;2023-08-07T18:16:49;18.10;99.90
2757;DHT22;1386;50.862;6.494;2023-08-07T18:19:16;18.10;99.90
2757;DHT22;1386;50.862;6.494;2023-08-07T18:21:43;18.10;99.90
2757;DHT22;1386;50.862;6.494;2023-08-07T18:24:12;18.00;99.90
2757;DHT22;1386;50.862;6.494;2023-08-07T18:26:39;18.00;99.90
2757;DHT22;1386;50.862;6.494;2023-08-07T18:29:06;18.00;99.90
2757;DHT22;1386;50.862;6.494;2023-08-07T18:31:33;18.00;99.90
2757;DHT22;1386;50.862;6.494;2023-08-07T18:34:00;18.00;99.90
2757;DHT22;1386;50.862;6.494;2023-08-07T18:36:27;18.00;99.90
2757;DHT22;1386;50.862;6.494;2023-08-07T18:38:54;17.90;99.90
2757;DHT22;1386;50.862;6.494;2023-08-07T18:41:22;17.90;99.90
2757;DHT22;1386;50.862;6.494;2023-08-07T18:43:49;17.90;99.90
2757;DHT22;1386;50.862;6.494;2023-08-07T18:46:16;17.80;99.90
2757;DHT22;1386;50.862;6.494;2023-08-07T18:48:43;17.80;99.90
2757;DHT22;1386;50.862;6.494;2023-08-07T18:51:19;17.80;99.90
2757;DHT22;1386;50.862;6.494;2023-08-07T18:54:01;17.80;99.90
2757;DHT22;1386;50.862;6.494;2023-08-07T18:56:33;17.80;99.90
2757;DHT22;1386;50.862;6.494;2023-08-07T18:59:02;17.80;99.90
2757;DHT22;1386;50.862;6.494;2023-08-07T19:01:33;17.70;99.90
2757;DHT22;1386;50.862;6.494;2023-08-07T19:04:02;17.70;99.90
2757;DHT22;1386;50.862;6.494;2023-08-07T19:06:39;17.70;99.90
2757;DHT22;1386;50.862;6.494;2023-08-07T19:09:18;17.70;99.90
2757;DHT22;1386;50.862;6.494;2023-08-07T19:11:50;17.60;99.90
2757;DHT22;1386;50.862;6.494;2023-08-07T19:14:22;17.60;99.90
2757;DHT22;1386;50.862;6.494;2023-08-07T19:16:49;17.60;99.90
2757;DHT22;1386;50.862;6.494;2023-08-07T19:19:16;17.50;99.90
2757;DHT22;1386;50.862;6.494;2023-08-07T19:21:43;17.40;99.90
2757;DHT22;1386;50.862;6.494;2023-08-07T19:24:10;17.40;99.90
2757;DHT22;1386;50.862;6.494;2023-08-07T19:26:40;17.40;99.90
2757;DHT22;1386;50.862;6.494;2023-08-07T19:29:08;17.30;99.90
2757;DHT22;1386;50.862;6.494;2023-08-07T19:31:35;17.30;99.90
2757;DHT22;1386;50.862;6.494;2023-08-07T19:34:02;17.20;99.90
2757;DHT22;1386;50.862;6.494;2023-08-07T19:36:29;17.10;99.90
2757;DHT22;1386;50.862;6.494;2023-08-07T19:38:57;17.00;99.90
2757;DHT22;1386;50.862;6.494;2023-08-07T19:41:24;17.00;99.90
2757;DHT22;1386;50.862;6.494;2023-08-07T19:43:51;17.00;99.90
2757;DHT22;1386;50.862;6.494;2023-08-07T19:46:19;16.90;99.90
